Ocean Giant — WDG4379 — position and weather

sailwx.info

Track history (hours):
 
Tides and Currents Weather Stations Pressure Air Temp Water Temp Dewpoint Dewpoint Depression Visibility Wind Speed Wind Dir Waves Ship Positions

Ocean Giant

Owner: Crowley Technical Management, Inc., Jacksonville, FL. More information available from US FCC via Universal Licensing System and Coast Guard Vessel Documentation Center.

Last reported at 2015-Mar-08 20:27 UTC. Time now 2015-May-23 02:44 UTC.
Position N 25°41' W 114°31'.
Warning: this ship's position is months out of date.

Length 166 m; draft 7.3 m.

Type: Cargo ship. MMSI: 367535950.

Date/timePositionNaut miles runAvg speedWind from/ knotsBaromVisibWave heightAir tempDewpointWater temp
2015-Mar-08 20:27N 25°41' W 114°31'1517.1
2015-Mar-08 19:33N 25°53' W 114°42'7517.5
2015-Mar-08 15:14N 26°53' W 115°34'1418.0
2015-Mar-08 14:26N 27°04' W 115°44'2318.0
2015-Mar-08 13:11N 27°21' W 116°00'1118.0
2015-Mar-08 12:33N 27°30' W 116°08'16016.9
2015-Mar-08 03:04N 29°54' W 117°29'2617.3
2015-Mar-08 01:34N 30°20' W 117°32'5217.2
2015-Mar-07 22:34N 31°11' W 117°39'1717.1
2015-Mar-07 21:34N 31°28' W 117°42'1717.2
2015-Mar-07 20:33N 31°45' W 117°44'1717.3
2015-Mar-07 19:34N 32°02' W 117°46'1717.0
2015-Mar-07 18:34N 32°19' W 117°48'1716.7
2015-Mar-07 17:34N 32°35' W 117°55'1717.1
2015-Mar-07 16:34N 32°48' W 118°07'1717.0
2015-Mar-07 15:33N 33°01' W 118°21'1717.0
2015-Mar-07 14:33N 33°13' W 118°35'1917.0
2015-Mar-07 13:26N 33°28' W 118°48'45 1.3
2015-Mar-06 01:28N 34°09' W 119°12'0 0.0
2015-Mar-05 10:33N 34°09' W 119°12'0 0.0
2015-Mar-05 09:33N 34°09' W 119°12'0 0.0
2015-Mar-05 08:33N 34°09' W 119°12'0 0.0
2015-Mar-05 04:32N 34°09' W 119°12'0 0.0
2015-Mar-05 03:03N 34°09' W 119°12'0 0.0
2015-Mar-05 02:33N 34°09' W 119°12'0 0.0
2015-Mar-05 01:25N 34°09' W 119°12'  
Track history (hours):
 
Tides and Currents Weather Stations Pressure Air Temp Water Temp Dewpoint Dewpoint Depression Visibility Wind Speed Wind Dir Waves Ship Positions

Ocean Giant

Owner: Crowley Technical Management, Inc., Jacksonville, FL. More information available from US FCC via Universal Licensing System and Coast Guard Vessel Documentation Center.

Last reported at 2015-Mar-08 20:27 UTC. Time now 2015-May-23 02:44 UTC.
Position N 25°41' W 114°31'.
Warning: this ship's position is months out of date.

Length 166 m; draft 7.3 m.

Type: Cargo ship. MMSI: 367535950.

Date/timePositionNaut miles runAvg speedWind from/ knotsBaromVisibWave heightAir tempDewpointWater temp
2015-Mar-08 20:27N 25°41' W 114°31'1517.1
2015-Mar-08 19:33N 25°53' W 114°42'7517.5
2015-Mar-08 15:14N 26°53' W 115°34'1418.0
2015-Mar-08 14:26N 27°04' W 115°44'2318.0
2015-Mar-08 13:11N 27°21' W 116°00'1118.0
2015-Mar-08 12:33N 27°30' W 116°08'16016.9
2015-Mar-08 03:04N 29°54' W 117°29'2617.3
2015-Mar-08 01:34N 30°20' W 117°32'5217.2
2015-Mar-07 22:34N 31°11' W 117°39'1717.1
2015-Mar-07 21:34N 31°28' W 117°42'1717.2
2015-Mar-07 20:33N 31°45' W 117°44'1717.3
2015-Mar-07 19:34N 32°02' W 117°46'1717.0
2015-Mar-07 18:34N 32°19' W 117°48'1716.7
2015-Mar-07 17:34N 32°35' W 117°55'1717.1
2015-Mar-07 16:34N 32°48' W 118°07'1717.0
2015-Mar-07 15:33N 33°01' W 118°21'1717.0
2015-Mar-07 14:33N 33°13' W 118°35'1917.0
2015-Mar-07 13:26N 33°28' W 118°48'45 1.3
2015-Mar-06 01:28N 34°09' W 119°12'0 0.0
2015-Mar-05 10:33N 34°09' W 119°12'0 0.0
2015-Mar-05 09:33N 34°09' W 119°12'0 0.0
2015-Mar-05 08:33N 34°09' W 119°12'0 0.0
2015-Mar-05 04:32N 34°09' W 119°12'0 0.0
2015-Mar-05 03:03N 34°09' W 119°12'0 0.0
2015-Mar-05 02:33N 34°09' W 119°12'0 0.0
2015-Mar-05 01:25N 34°09' W 119°12'  

Dump ship's entire track history